WetterOnline ( http://www.wetteronline.de )

Wetter aktuell Ruhpolding

Aktuelles Wetter: Salzburg Flughafen (450m)

6-stündlich | Neueste Meldungen
Ortszeit Temperatur Wetter
Mi, 24.01. 1:00 0.8° C wolkig
Di, 23.01. 19:00 3.0° C bewölkt
Di, 23.01. 13:00 4.4° C bedeckt
Di, 23.01. 7:00 3.7° C leichte Schauer
Di, 23.01. 1:00 4.3° C leichte Schauer
Mo, 22.01. 19:00 1.4° C leichter Regen
Mo, 22.01. 13:00 0.4° C leichter Regen
Mo, 22.01. 7:00 -2.1° C Schneefall
Ortszeit Temperatur Wetter
Mi, 24.01. 6:20 2° C bewölkt
Mi, 24.01. 6:00 1.7° C bedeckt
Mi, 24.01. 5:50 2° C bewölkt
Mi, 24.01. 5:20 1° C bewölkt
Mi, 24.01. 5:00 1.0° C bedeckt
Mi, 24.01. 4:50 1° C bedeckt
Mi, 24.01. 4:20 1° C bewölkt
Mi, 24.01. 4:00 0.5° C wolkig
Mi, 24.01. 3:20 0° C leicht bewölkt
Mi, 24.01. 3:00 -0.1° C fast wolkenlos
Ortszeit Relative Feuchte Sichtweite
Mi, 24.01. 1:00 90% 17 km
Di, 23.01. 19:00 88% 40 km
Di, 23.01. 13:00 80% 40 km
Di, 23.01. 7:00 82% 8 km
Di, 23.01. 1:00 87% 21 km
Mo, 22.01. 19:00 94% 9 km
Mo, 22.01. 13:00 88% 4.3 km
Mo, 22.01. 7:00 96% 1.9 km
Ortszeit Relative Feuchte Sichtweite
Mi, 24.01. 6:20 80% >10 km
Mi, 24.01. 6:00 82% 17 km
Mi, 24.01. 5:50 80% >10 km
Mi, 24.01. 5:20 86% >10 km
Mi, 24.01. 5:00 86% 16 km
Mi, 24.01. 4:50 86% >10 km
Mi, 24.01. 4:20 86% >10 km
Mi, 24.01. 4:00 88% 30 km
Mi, 24.01. 3:20 86% >10 km
Mi, 24.01. 3:00 92% 15 km
Ortszeit Niederschlagsmenge Niederschlagsart
Mi, 24.01. 1:00 0.1 l/m2 in 6 Std. -
Di, 23.01. 19:00 0.1 l/m2 in 12 Std. -
Di, 23.01. 13:00 0.1 l/m2 in 6 Std. -
Di, 23.01. 7:00 7 l/m2 in 12 Std. -
Di, 23.01. 1:00 6 l/m2 in 6 Std. -
Mo, 22.01. 19:00 8 l/m2 in 12 Std. -
Mo, 22.01. 13:00 4 l/m2 in 6 Std. -
Mo, 22.01. 7:00 4 l/m2 in 12 Std. -
Ortszeit Niederschlagsmenge Niederschlagsart
Mi, 24.01. 6:20 keine Meldung -
Mi, 24.01. 6:00 0.1 l/m2 in 1 Std. -
Mi, 24.01. 5:50 keine Meldung -
Mi, 24.01. 5:20 keine Meldung -
Mi, 24.01. 5:00 0.0 l/m2 in 1 Std. -
Mi, 24.01. 4:50 keine Meldung -
Mi, 24.01. 4:20 keine Meldung -
Mi, 24.01. 4:00 0.0 l/m2 in 1 Std. -
Mi, 24.01. 3:20 keine Meldung -
Mi, 24.01. 3:00 0.0 l/m2 in 1 Std. -
Ortszeit Stärke Spitze Richtung
km/h Bft. km/h Grad Sektor
Mi, 24.01. 1:00 14 3 - 150° SO
Di, 23.01. 19:00 11 2 - 170° S
Di, 23.01. 13:00 14 3 - 220° SW
Di, 23.01. 7:00 14 3 - 260° W
Di, 23.01. 1:00 11 2 - 300° NW
Mo, 22.01. 19:00 18 3 - 150° SO
Mo, 22.01. 13:00 22 4 - 150° SO
Mo, 22.01. 7:00 14 3 - 150° SO
Ortszeit Stärke Spitze Richtung
km/h Bft. km/h Grad Sektor
Mi, 24.01. 6:20 22 4 - 150° SO
Mi, 24.01. 6:00 22 4 - 150° SO
Mi, 24.01. 5:50 22 4 - 150° SO
Mi, 24.01. 5:20 20 4 - 150° SO
Mi, 24.01. 5:00 22 4 - 150° SO
Mi, 24.01. 4:50 22 4 - 150° SO
Mi, 24.01. 4:20 22 4 - 160° S
Mi, 24.01. 4:00 18 3 - 170° S
Mi, 24.01. 3:20 19 3 - 150° SO
Mi, 24.01. 3:00 14 3 - 150° SO
Ortszeit Untergrenze Bedeckung Gattung
total tief tief mittel hoch
Mi, 24.01. 1:00 5100 m 5/8 5/8 - - -
Di, 23.01. 19:00 1200 m 7/8 6/8 Sc - -
Di, 23.01. 13:00 900 m 8/8 7/8 Sc - -
Di, 23.01. 7:00 600 m 8/8 7/8 Sc - -
Di, 23.01. 1:00 210 m 8/8 7/8 - - -
Mo, 22.01. 19:00 210 m 8/8 6/8 St - -
Mo, 22.01. 13:00 210 m 8/8 7/8 St - -
Mo, 22.01. 7:00 150 m 8/8 7/8 St - -
Ortszeit Bedeckungsgrad in Achtel und Wolkenuntergrenze
Mi, 24.01. 6:20 1-2(1800m) 5-7(2100m)
Mi, 24.01. 6:00 1(1800m) 6(2100m)
Mi, 24.01. 5:50 1-2(1800m) 5-7(2100m)
Mi, 24.01. 5:20 5-7(1800m)
Mi, 24.01. 5:00 8(1800m)
Mi, 24.01. 4:50 8(1800m)
Mi, 24.01. 4:20 5-7(1800m)
Mi, 24.01. 4:00 1(1800m) 5(2100m)
Mi, 24.01. 3:20 1-2(5400m)
Mi, 24.01. 3:00 1(3900m)
Ortszeit Luftdruck NN (hPa) Tendenz (hPa in 3 Std.)
Mi, 24.01. 1:00 1030 0,0
Di, 23.01. 19:00 1030 + 0,6
Di, 23.01. 13:00 1029 + 1,1
Di, 23.01. 7:00 1025 + 2,5
Di, 23.01. 1:00 1020 + 4,6
Mo, 22.01. 19:00 1013 + 1,6
Mo, 22.01. 13:00 1012 - 2,0
Mo, 22.01. 7:00 1016 - 1,3
Ortszeit Luftdruck NN (hPa) Tendenz (hPa in 3 Std.)
Mi, 24.01. 6:20 1027 keine Meldung
Mi, 24.01. 6:00 1029 - 1,0
Mi, 24.01. 5:50 1027 keine Meldung
Mi, 24.01. 5:20 1027 keine Meldung
Mi, 24.01. 5:00 1030 - 0,5
Mi, 24.01. 4:50 1027 keine Meldung
Mi, 24.01. 4:20 1027 keine Meldung
Mi, 24.01. 4:00 1030 0,0
Mi, 24.01. 3:20 1028 keine Meldung
Mi, 24.01. 3:00 1031 + 0,5
Ortszeit Schneehöhe (cm)
Mi, 24.01. 1:00 0
Di, 23.01. 19:00 -
Di, 23.01. 13:00 -
Di, 23.01. 7:00 2
Di, 23.01. 1:00 3
Mo, 22.01. 19:00 -
Mo, 22.01. 13:00 -
Mo, 22.01. 7:00 3
Ortszeit Schneehöhe (cm)
Mi, 24.01. 6:20 -
Mi, 24.01. 6:00 -
Mi, 24.01. 5:50 -
Mi, 24.01. 5:20 -
Mi, 24.01. 5:00 0
Mi, 24.01. 4:50 -
Mi, 24.01. 4:20 -
Mi, 24.01. 4:00 0
Mi, 24.01. 3:20 -
Mi, 24.01. 3:00 0
Link zu dieser Seite / Seite empfehlen

Das Wetter in ...